Time;durP1;ratioP1;P1;durP2;ratioP2;P2;SDS_P1;SDS_P2;PMS_P1;PMS_P2;Temp;Humidity;BMP_temperature;BMP_pressure;BME280_temperature;BME280_humidity;BME280_pressure;Samples;Min_cycle;Max_cycle;Signal;HPM_P1;HPM_P2
2021/12/10 00:02:09;;;;;;;9.55;6.13;;;4.80;99.90;;;;;;4172836;28;20049;-61
2021/12/10 00:04:12;;;;;;;9.60;6.30;;;4.80;99.90;;;;;;4163764;28;20095;-61
2021/12/10 00:06:19;;;;;;;11.50;6.25;;;4.80;99.90;;;;;;4167621;28;20029;-61
2021/12/10 00:08:22;;;;;;;12.52;5.85;;;4.80;99.90;;;;;;4166515;28;20514;-61
2021/12/10 00:10:30;;;;;;;11.23;6.07;;;4.90;99.90;;;;;;4167566;28;20040;-61
2021/12/10 00:12:36;;;;;;;10.25;5.70;;;4.80;99.90;;;;;;4168468;28;20033;-61
2021/12/10 00:14:38;;;;;;;12.02;5.88;;;4.80;99.90;;;;;;4167968;28;20029;-61
2021/12/10 00:16:40;;;;;;;9.40;5.15;;;4.80;99.90;;;;;;4167117;28;20121;-61
2021/12/10 00:18:49;;;;;;;9.10;5.60;;;4.80;99.90;;;;;;4168009;28;20120;-61
2021/12/10 00:20:57;;;;;;;9.90;5.60;;;4.80;99.90;;;;;;4161704;28;20543;-61
2021/12/10 00:23:04;;;;;;;9.95;5.25;;;4.80;99.90;;;;;;4153230;28;20037;-61
2021/12/10 00:25:08;;;;;;;11.38;5.75;;;4.90;99.90;;;;;;4172607;28;20037;-62
2021/12/10 00:27:10;;;;;;;11.15;5.65;;;4.80;99.90;;;;;;4162512;28;20033;-61
2021/12/10 00:29:11;;;;;;;8.27;5.25;;;4.80;99.90;;;;;;4170222;28;20037;-61
2021/12/10 00:31:30;;;;;;;7.87;5.33;;;4.80;99.90;;;;;;4170027;28;20430;-61
2021/12/10 00:33:38;;;;;;;8.30;4.75;;;4.90;99.90;;;;;;4160319;28;20432;-61
2021/12/10 00:35:40;;;;;;;9.38;4.85;;;4.90;99.90;;;;;;4149381;28;20113;-61
2021/12/10 00:37:41;;;;;;;8.02;4.57;;;4.90;99.90;;;;;;4155585;28;20037;-61
2021/12/10 00:39:46;;;;;;;8.48;5.25;;;5.00;99.90;;;;;;4173639;28;20392;-61
2021/12/10 00:41:47;;;;;;;7.43;5.03;;;4.90;99.90;;;;;;4165393;28;20043;-60
2021/12/10 00:43:48;;;;;;;9.13;4.40;;;5.00;99.90;;;;;;4167940;28;20037;-61
2021/12/10 00:45:49;;;;;;;10.02;4.93;;;5.00;99.90;;;;;;4166868;28;20059;-61
2021/12/10 00:47:51;;;;;;;8.85;4.85;;;5.00;99.90;;;;;;4164199;28;20033;-61
2021/12/10 00:49:52;;;;;;;7.65;4.63;;;5.00;99.90;;;;;;4168152;28;20388;-61
2021/12/10 00:51:53;;;;;;;10.10;5.53;;;5.00;99.90;;;;;;4167218;28;20040;-60
2021/12/10 00:53:54;;;;;;;7.38;4.85;;;5.00;99.90;;;;;;4170161;28;20057;-61
2021/12/10 00:55:55;;;;;;;7.00;4.53;;;5.00;99.90;;;;;;4169852;28;20034;-60
2021/12/10 00:57:57;;;;;;;9.48;5.22;;;5.10;99.90;;;;;;4169889;28;20112;-61
2021/12/10 00:59:58;;;;;;;7.97;4.72;;;5.00;99.90;;;;;;4173030;28;20571;-61
2021/12/10 01:01:59;;;;;;;11.82;4.30;;;5.10;99.90;;;;;;4165172;28;20057;-60
2021/12/10 01:04:06;;;;;;;8.30;4.97;;;5.10;99.90;;;;;;4163873;28;20480;-61
2021/12/10 01:06:10;;;;;;;7.20;5.10;;;5.10;99.90;;;;;;4167227;28;20473;-61
2021/12/10 01:08:11;;;;;;;9.25;5.18;;;5.10;99.90;;;;;;4167622;28;20034;-61
2021/12/10 01:10:26;;;;;;;5.72;3.92;;;5.10;99.90;;;;;;4167224;28;20496;-60
2021/12/10 01:12:36;;;;;;;8.80;4.55;;;5.10;99.90;;;;;;4154674;28;20033;-61
2021/12/10 01:15:00;;;;;;;7.93;4.75;;;5.10;99.90;;;;;;4170022;28;20038;-61
2021/12/10 01:24:15;;;;;;;5.95;3.47;;;5.10;99.90;;;;;;4164079;28;20040;-61
2021/12/10 01:28:21;;;;;;;6.38;3.70;;;5.10;99.90;;;;;;4167264;28;20123;-61
2021/12/10 01:30:26;;;;;;;4.97;3.80;;;5.10;99.90;;;;;;4166864;28;20040;-62
2021/12/10 01:32:30;;;;;;;8.43;3.85;;;5.10;99.90;;;;;;4167348;28;20056;-61
2021/12/10 01:34:32;;;;;;;5.75;3.22;;;5.10;99.90;;;;;;4171172;28;20037;-61
2021/12/10 01:36:34;;;;;;;6.85;3.60;;;5.10;99.90;;;;;;4165816;28;20086;-61
2021/12/10 01:38:37;;;;;;;5.13;3.13;;;5.00;99.90;;;;;;4170154;28;20099;-61
2021/12/10 01:40:40;;;;;;;6.03;3.45;;;4.90;99.90;;;;;;4165705;28;20095;-58
2021/12/10 01:42:46;;;;;;;9.25;4.22;;;5.00;99.90;;;;;;4164654;28;20025;-61
2021/12/10 01:44:51;;;;;;;5.95;3.83;;;4.90;99.90;;;;;;4173139;28;20511;-61
2021/12/10 01:46:52;;;;;;;6.10;3.45;;;4.90;99.90;;;;;;4171212;28;20471;-61
2021/12/10 01:48:55;;;;;;;7.07;3.13;;;4.90;99.90;;;;;;4166096;28;20043;-61
2021/12/10 01:50:58;;;;;;;6.97;3.58;;;5.00;99.90;;;;;;4160441;28;20091;-61
2021/12/10 01:53:04;;;;;;;6.32;3.35;;;5.00;99.90;;;;;;4172259;28;20538;-61
2021/12/10 01:55:06;;;;;;;4.93;3.28;;;5.00;99.90;;;;;;4161624;28;20048;-60
2021/12/10 01:57:09;;;;;;;6.05;3.67;;;4.90;99.90;;;;;;4168962;28;20104;-61
2021/12/10 01:59:13;;;;;;;6.28;3.83;;;4.90;99.90;;;;;;4162370;28;20158;-61
2021/12/10 02:01:31;;;;;;;5.85;3.33;;;4.90;99.90;;;;;;4165018;28;20037;-61
2021/12/10 02:03:32;;;;;;;7.03;4.20;;;4.80;99.90;;;;;;4165753;28;20138;-61
2021/12/10 02:05:33;;;;;;;10.93;4.57;;;4.70;99.90;;;;;;4167503;28;20037;-61
2021/12/10 02:07:34;;;;;;;7.15;3.90;;;4.70;99.90;;;;;;4160377;28;20037;-61
2021/12/10 02:09:35;;;;;;;7.53;3.67;;;4.70;99.90;;;;;;4166156;28;20045;-61
2021/12/10 02:11:36;;;;;;;7.18;3.80;;;4.60;99.90;;;;;;4171559;28;20030;-61
2021/12/10 02:13:37;;;;;;;5.55;3.28;;;4.50;99.90;;;;;;4163638;28;20032;-61
2021/12/10 02:15:38;;;;;;;8.70;3.70;;;4.50;99.90;;;;;;4163124;28;20037;-61
2021/12/10 02:17:45;;;;;;;6.53;3.95;;;4.40;99.90;;;;;;4164268;28;20037;-61
2021/12/10 02:19:46;;;;;;;7.30;4.15;;;4.40;99.90;;;;;;4151110;28;20358;-61
2021/12/10 02:21:47;;;;;;;6.80;3.65;;;4.40;99.90;;;;;;4165486;28;20041;-61
2021/12/10 02:23:55;;;;;;;9.68;3.83;;;4.50;99.90;;;;;;4173840;28;20033;-61
2021/12/10 02:25:56;;;;;;;7.57;3.50;;;4.40;99.90;;;;;;4163324;28;20064;-58
2021/12/10 02:27:58;;;;;;;7.85;3.95;;;4.40;99.90;;;;;;4155924;28;20038;-61
2021/12/10 02:29:59;;;;;;;9.38;3.95;;;4.40;99.90;;;;;;4171101;28;20044;-61
2021/12/10 02:31:59;;;;;;;7.18;3.72;;;4.40;99.90;;;;;;4165608;28;20032;-61
2021/12/10 02:34:01;;;;;;;5.97;3.63;;;4.40;99.90;;;;;;4167330;28;20755;-61
2021/12/10 02:36:03;;;;;;;9.25;4.32;;;4.40;99.90;;;;;;4168646;28;20032;-61
2021/12/10 02:38:05;;;;;;;10.17;4.57;;;4.40;99.90;;;;;;4168898;28;20479;-61
2021/12/10 02:40:08;;;;;;;8.50;3.97;;;4.40;99.90;;;;;;4163131;28;20029;-62
2021/12/10 02:42:09;;;;;;;8.38;4.18;;;4.40;99.90;;;;;;4171156;28;20151;-61
2021/12/10 02:44:12;;;;;;;9.32;4.10;;;4.30;99.90;;;;;;4160467;28;20042;-61
2021/12/10 02:46:13;;;;;;;12.07;4.30;;;4.30;99.90;;;;;;4165179;28;20374;-61
2021/12/10 02:48:14;;;;;;;9.68;3.80;;;4.20;99.90;;;;;;4165690;28;20070;-61
2021/12/10 02:50:17;;;;;;;8.45;3.25;;;4.30;99.90;;;;;;4168461;28;20038;-60
2021/12/10 02:52:21;;;;;;;8.25;3.20;;;4.30;99.90;;;;;;4166295;28;20452;-61
2021/12/10 02:54:32;;;;;;;10.52;3.08;;;4.20;99.90;;;;;;4169089;28;20030;-61
2021/12/10 02:56:33;;;;;;;6.53;3.25;;;4.30;99.90;;;;;;4158475;28;20383;-61
2021/12/10 02:58:34;;;;;;;6.97;3.30;;;4.30;99.90;;;;;;4169488;28;20038;-61
2021/12/10 03:00:43;;;;;;;6.18;3.17;;;4.30;99.90;;;;;;4175815;28;20029;-61
2021/12/10 03:02:43;;;;;;;7.88;2.90;;;4.30;99.90;;;;;;4167055;28;20052;-61
2021/12/10 03:04:44;;;;;;;5.88;2.63;;;4.30;99.90;;;;;;4167807;28;20488;-61
2021/12/10 03:06:54;;;;;;;10.02;3.25;;;4.30;99.90;;;;;;4169099;28;20025;-61
2021/12/10 03:08:55;;;;;;;10.82;3.08;;;4.30;99.90;;;;;;4169411;28;20041;-61
2021/12/10 03:10:55;;;;;;;8.50;3.38;;;4.30;99.90;;;;;;4168481;28;20053;-61
2021/12/10 03:12:56;;;;;;;5.28;2.88;;;4.30;99.90;;;;;;4174547;28;20047;-61
2021/12/10 03:14:57;;;;;;;7.53;2.60;;;4.30;99.90;;;;;;4163985;28;20395;-61
2021/12/10 03:17:04;;;;;;;9.35;3.22;;;4.30;99.90;;;;;;4171253;28;20084;-61
2021/12/10 03:19:05;;;;;;;7.25;2.83;;;4.40;99.90;;;;;;4169365;28;20048;-61
2021/12/10 03:21:09;;;;;;;7.65;3.17;;;4.30;99.90;;;;;;4171149;28;20029;-61
2021/12/10 03:23:11;;;;;;;9.40;3.17;;;4.30;99.90;;;;;;4164651;28;20123;-61
2021/12/10 03:25:14;;;;;;;8.00;3.00;;;4.30;99.90;;;;;;4168275;28;20036;-62
2021/12/10 03:27:15;;;;;;;8.32;3.20;;;4.30;99.90;;;;;;4169140;28;20036;-62
2021/12/10 03:29:15;;;;;;;6.60;2.92;;;4.30;99.90;;;;;;4171331;28;20368;-62
2021/12/10 03:31:17;;;;;;;7.50;3.45;;;4.40;99.90;;;;;;4175733;28;20041;-62
2021/12/10 03:33:18;;;;;;;8.18;3.42;;;4.30;99.90;;;;;;4165206;28;20043;-62
2021/12/10 03:35:25;;;;;;;10.13;3.83;;;4.30;99.90;;;;;;4169476;28;20109;-62
2021/12/10 03:37:27;;;;;;;10.95;3.90;;;4.30;99.90;;;;;;4168665;28;20036;-62
2021/12/10 03:39:27;;;;;;;9.57;3.67;;;4.30;99.90;;;;;;4172985;28;20037;-62
2021/12/10 03:41:28;;;;;;;15.63;4.10;;;4.30;99.90;;;;;;4161009;28;20025;-62
2021/12/10 03:43:29;;;;;;;6.80;3.38;;;4.30;99.90;;;;;;4174139;28;20039;-61
2021/12/10 03:45:37;;;;;;;14.77;3.90;;;4.30;99.90;;;;;;4171083;28;20118;-62
2021/12/10 03:47:38;;;;;;;11.73;4.00;;;4.30;99.90;;;;;;4171606;28;20108;-62
2021/12/10 03:49:39;;;;;;;10.05;4.13;;;4.30;99.90;;;;;;4171255;28;20103;-62
2021/12/10 03:51:40;;;;;;;11.73;3.97;;;4.30;99.90;;;;;;4162410;28;20479;-62
2021/12/10 03:53:41;;;;;;;9.63;3.80;;;4.30;99.90;;;;;;4168907;28;20033;-62
2021/12/10 03:55:42;;;;;;;12.63;3.75;;;4.20;99.90;;;;;;4167921;28;20041;-62
2021/12/10 03:57:42;;;;;;;10.30;4.00;;;4.20;99.90;;;;;;4173779;28;20116;-62
2021/12/10 03:59:43;;;;;;;8.48;3.63;;;4.20;99.90;;;;;;4162620;28;20038;-61
2021/12/10 04:01:47;;;;;;;10.75;3.17;;;4.20;99.90;;;;;;4170991;28;20083;-62
2021/12/10 04:03:50;;;;;;;6.07;3.08;;;4.20;99.90;;;;;;4168486;28;21824;-62
2021/12/10 04:05:51;;;;;;;17.27;3.47;;;4.20;99.90;;;;;;4170172;28;20029;-61
2021/12/10 04:07:52;;;;;;;8.77;3.50;;;4.20;99.90;;;;;;4163125;28;20092;-61
2021/12/10 04:09:53;;;;;;;8.88;3.08;;;4.20;99.90;;;;;;4171273;28;20113;-62
2021/12/10 04:11:55;;;;;;;8.35;3.15;;;4.20;99.90;;;;;;4167945;28;20026;-62
2021/12/10 04:13:57;;;;;;;12.18;3.97;;;4.20;99.90;;;;;;4175922;28;20068;-61
2021/12/10 04:15:57;;;;;;;7.20;3.38;;;4.30;99.90;;;;;;4163070;28;20418;-62
2021/12/10 04:17:58;;;;;;;7.13;2.85;;;4.20;99.90;;;;;;4175476;28;20034;-61
2021/12/10 04:19:59;;;;;;;7.97;2.92;;;4.20;99.90;;;;;;4167333;28;20025;-61
2021/12/10 04:22:02;;;;;;;12.13;3.63;;;4.20;99.90;;;;;;4167478;28;20158;-61
2021/12/10 04:24:03;;;;;;;;;;;4.20;99.90;;;;;;4162781;28;20045;-61
2021/12/10 04:26:04;;;;;;;8.00;2.97;;;4.20;99.90;;;;;;4167681;28;20356;-62
2021/12/10 04:28:09;;;;;;;7.30;2.83;;;4.20;99.90;;;;;;4170812;28;20419;-61
2021/12/10 04:30:12;;;;;;;8.43;3.15;;;4.20;99.90;;;;;;4168206;28;20029;-62
2021/12/10 04:32:15;;;;;;;10.13;3.40;;;4.20;99.90;;;;;;4152546;28;20034;-61
2021/12/10 04:34:16;;;;;;;6.85;2.75;;;4.20;99.90;;;;;;4152982;28;20384;-61
2021/12/10 04:36:17;;;;;;;6.35;2.95;;;4.20;99.90;;;;;;4173472;28;20078;-62
2021/12/10 04:38:19;;;;;;;8.65;2.83;;;4.20;99.90;;;;;;4167891;28;20061;-62
2021/12/10 04:40:21;;;;;;;9.48;2.78;;;4.20;99.90;;;;;;4167078;28;20033;-62
2021/12/10 04:42:24;;;;;;;;;;;4.20;99.90;;;;;;4170213;28;20400;-62
2021/12/10 04:44:26;;;;;;;10.97;2.80;;;4.20;99.90;;;;;;4152806;28;19911;-61
2021/12/10 04:46:27;;;;;;;9.63;2.75;;;4.20;99.90;;;;;;4171236;28;20112;-62
2021/12/10 04:48:30;;;;;;;7.95;2.42;;;4.20;99.90;;;;;;4167687;28;20029;-62
2021/12/10 04:50:30;;;;;;;;;;;4.30;99.90;;;;;;4157031;28;20607;-62
2021/12/10 04:52:34;;;;;;;9.18;2.30;;;4.30;99.90;;;;;;4166932;28;19995;-61
2021/12/10 04:54:34;;;;;;;5.63;2.30;;;4.30;99.90;;;;;;4171358;28;20056;-61
2021/12/10 04:56:36;;;;;;;8.05;2.53;;;4.30;99.90;;;;;;4174173;28;20021;-61
2021/12/10 04:58:37;;;;;;;12.43;2.15;;;4.20;99.90;;;;;;4165733;28;20033;-61
2021/12/10 05:00:44;;;;;;;10.90;2.70;;;4.20;99.90;;;;;;4164430;28;20036;-62
2021/12/10 05:02:45;;;;;;;11.70;2.38;;;4.20;99.90;;;;;;4172306;28;20081;-62
2021/12/10 05:04:47;;;;;;;10.27;2.40;;;4.20;99.90;;;;;;4166731;28;20087;-62
2021/12/10 05:06:48;;;;;;;9.30;2.40;;;4.20;99.90;;;;;;4164358;28;20030;-62
2021/12/10 05:08:49;;;;;;;9.30;1.92;;;4.20;99.90;;;;;;4174578;28;20029;-61
2021/12/10 05:10:50;;;;;;;7.22;2.33;;;4.30;99.90;;;;;;4165796;28;20471;-61
2021/12/10 05:12:50;;;;;;;8.00;2.20;;;4.30;99.90;;;;;;4166079;28;20025;-61
2021/12/10 05:14:57;;;;;;;7.32;2.40;;;4.30;99.90;;;;;;4167340;28;20038;-61
2021/12/10 05:17:03;;;;;;;7.75;2.40;;;4.30;99.90;;;;;;4166745;28;20068;-62
2021/12/10 05:19:05;;;;;;;15.60;2.17;;;4.20;99.90;;;;;;4170650;28;20033;-62
2021/12/10 05:21:08;;;;;;;8.65;2.25;;;4.20;99.90;;;;;;4160997;28;20030;-62
2021/12/10 05:23:09;;;;;;;8.68;2.25;;;4.20;99.90;;;;;;4163891;28;20041;-61
2021/12/10 05:25:10;;;;;;;8.50;2.35;;;4.20;99.90;;;;;;4166784;28;20052;-62
2021/12/10 05:27:11;;;;;;;13.50;2.60;;;4.20;99.90;;;;;;4166819;28;20033;-62
2021/12/10 05:29:12;;;;;;;9.90;2.53;;;4.20;99.90;;;;;;4170620;28;20472;-62
2021/12/10 05:31:12;;;;;;;6.25;2.53;;;4.20;99.90;;;;;;4163234;28;20039;-61
2021/12/10 05:33:17;;;;;;;6.95;2.10;;;4.20;99.90;;;;;;4169130;28;20038;-61
2021/12/10 05:35:17;;;;;;;4.45;1.63;;;4.20;99.90;;;;;;4168510;28;20041;-62
2021/12/10 05:37:18;;;;;;;7.00;1.90;;;4.20;99.90;;;;;;4160385;28;20067;-62
2021/12/10 05:39:22;;;;;;;8.93;2.10;;;4.20;99.90;;;;;;4172058;28;20037;-62
2021/12/10 05:41:23;;;;;;;11.23;2.25;;;4.20;99.90;;;;;;4166384;28;20099;-62
2021/12/10 05:43:24;;;;;;;9.30;2.55;;;4.10;99.90;;;;;;4167230;28;20025;-62
2021/12/10 05:45:25;;;;;;;9.48;2.33;;;4.10;99.90;;;;;;4166148;28;20059;-62
2021/12/10 05:47:25;;;;;;;8.82;2.22;;;4.10;99.90;;;;;;4167773;28;20082;-62
2021/12/10 05:49:27;;;;;;;10.15;2.53;;;4.20;99.90;;;;;;4169386;28;20090;-62
2021/12/10 05:51:28;;;;;;;10.80;2.80;;;4.10;99.90;;;;;;4166108;28;20029;-62
2021/12/10 05:53:28;;;;;;;6.88;2.58;;;4.10;99.90;;;;;;4166853;28;20064;-62
2021/12/10 05:55:30;;;;;;;9.93;2.80;;;4.10;99.90;;;;;;4166966;28;20060;-62
2021/12/10 05:57:30;;;;;;;11.13;2.75;;;4.10;99.90;;;;;;4171849;28;20029;-62
2021/12/10 05:59:31;;;;;;;10.70;2.70;;;4.10;99.90;;;;;;4161914;28;20090;-62
2021/12/10 06:01:32;;;;;;;9.70;2.88;;;4.10;99.90;;;;;;4170683;28;20067;-62
2021/12/10 06:03:36;;;;;;;12.48;3.05;;;4.10;99.90;;;;;;4163875;28;20087;-62
2021/12/10 06:05:38;;;;;;;8.15;3.05;;;4.10;99.90;;;;;;4166066;28;20029;-62
2021/12/10 06:07:39;;;;;;;11.45;2.70;;;4.10;99.90;;;;;;4163993;28;20025;-62
2021/12/10 06:09:40;;;;;;;10.75;2.83;;;4.10;99.90;;;;;;4166368;28;20036;-62
2021/12/10 06:11:40;;;;;;;9.68;3.08;;;4.20;99.90;;;;;;4170995;28;20029;-62
2021/12/10 06:13:41;;;;;;;10.82;2.67;;;4.10;99.90;;;;;;4164728;28;20539;-62
2021/12/10 06:15:41;;;;;;;10.48;3.13;;;4.10;99.90;;;;;;4163183;28;20040;-62
2021/12/10 06:17:43;;;;;;;5.78;2.08;;;4.10;99.90;;;;;;4166949;28;20033;-61
2021/12/10 06:19:43;;;;;;;13.15;3.17;;;4.10;99.90;;;;;;4151045;28;20100;-62
2021/12/10 06:21:45;;;;;;;8.82;2.33;;;4.10;99.90;;;;;;4167036;28;20089;-62
2021/12/10 06:23:46;;;;;;;7.90;2.90;;;4.10;99.90;;;;;;4169160;28;20037;-62
2021/12/10 06:25:48;;;;;;;11.40;3.03;;;4.10;99.90;;;;;;4166409;28;20116;-62
2021/12/10 06:27:48;;;;;;;10.35;2.38;;;4.10;99.90;;;;;;4170816;28;20025;-62
2021/12/10 06:29:49;;;;;;;7.78;2.70;;;4.10;99.90;;;;;;4156824;28;20503;-62
2021/12/10 06:31:51;;;;;;;12.32;3.15;;;4.10;99.90;;;;;;4162618;28;20447;-61
2021/12/10 06:33:52;;;;;;;13.43;3.17;;;4.10;99.90;;;;;;4168958;28;20407;-62
2021/12/10 06:35:53;;;;;;;8.00;3.08;;;4.10;99.90;;;;;;4168133;28;20029;-62
2021/12/10 06:37:55;;;;;;;14.43;3.30;;;4.10;99.90;;;;;;4160592;28;20180;-62
2021/12/10 06:39:55;;;;;;;9.48;2.78;;;4.10;99.90;;;;;;4166193;28;20065;-61
2021/12/10 06:41:56;;;;;;;11.75;2.88;;;4.10;99.90;;;;;;4169089;28;20030;-62
2021/12/10 06:43:57;;;;;;;7.38;3.20;;;4.10;99.90;;;;;;4171730;28;20388;-62
2021/12/10 06:46:00;;;;;;;10.15;2.80;;;4.10;99.90;;;;;;4159892;28;20029;-63
2021/12/10 06:48:04;;;;;;;7.07;2.28;;;4.10;99.90;;;;;;4166243;28;20030;-62
2021/12/10 06:50:06;;;;;;;14.30;3.80;;;4.10;99.90;;;;;;4165781;28;20044;-63
2021/12/10 06:52:07;;;;;;;12.18;3.05;;;4.20;99.90;;;;;;4168701;28;20029;-63
2021/12/10 06:54:08;;;;;;;7.00;2.78;;;4.10;99.90;;;;;;4169053;28;20029;-62
2021/12/10 06:56:10;;;;;;;8.45;2.67;;;4.10;99.90;;;;;;4160477;28;20036;-62
2021/12/10 06:58:11;;;;;;;9.02;2.55;;;4.10;99.90;;;;;;4166066;28;20067;-63
2021/12/10 07:00:16;;;;;;;10.40;3.08;;;4.20;99.90;;;;;;4165127;28;20029;-63
2021/12/10 07:02:17;;;;;;;11.20;2.95;;;4.20;99.90;;;;;;4167392;28;20046;-62
2021/12/10 07:04:19;;;;;;;11.10;3.03;;;4.10;99.90;;;;;;4166122;28;20101;-62
2021/12/10 07:06:20;;;;;;;12.23;2.92;;;4.20;99.90;;;;;;4168091;28;20056;-62
2021/12/10 07:08:24;;;;;;;9.27;3.15;;;4.10;99.90;;;;;;4165326;28;20036;-62
2021/12/10 07:10:25;;;;;;;9.25;3.28;;;4.10;99.90;;;;;;4165790;28;20454;-63
2021/12/10 07:12:26;;;;;;;7.10;2.88;;;4.20;99.90;;;;;;4166679;28;20033;-63
2021/12/10 07:14:27;;;;;;;7.55;2.60;;;4.10;99.90;;;;;;4166040;28;20030;-63
2021/12/10 07:16:29;;;;;;;7.05;2.60;;;4.20;99.90;;;;;;4168601;28;20044;-63
2021/12/10 07:18:29;;;;;;;11.88;3.28;;;4.20;99.90;;;;;;4164024;28;20038;-62
2021/12/10 07:20:30;;;;;;;15.52;3.72;;;4.20;99.90;;;;;;4160760;28;20044;-63
2021/12/10 07:22:31;;;;;;;8.20;2.88;;;4.20;99.90;;;;;;4166120;28;20033;-63
2021/12/10 07:24:32;;;;;;;11.60;3.00;;;4.20;99.90;;;;;;4166496;28;20094;-63
2021/12/10 07:26:34;;;;;;;10.55;3.00;;;4.20;99.90;;;;;;4165522;28;20487;-63
2021/12/10 07:28:34;;;;;;;11.50;2.88;;;4.20;99.90;;;;;;4165978;28;20472;-63
2021/12/10 07:30:36;;;;;;;11.02;3.05;;;4.20;99.90;;;;;;4166512;28;20036;-63
2021/12/10 07:32:37;;;;;;;9.80;3.00;;;4.20;99.90;;;;;;4158305;28;20026;-63
2021/12/10 07:34:37;;;;;;;10.73;2.97;;;4.20;99.90;;;;;;4172090;28;20034;-63
2021/12/10 07:36:38;;;;;;;8.25;2.85;;;4.20;99.90;;;;;;4165485;28;20368;-63
2021/12/10 07:38:39;;;;;;;10.25;2.55;;;4.20;99.90;;;;;;4170995;28;20067;-63
2021/12/10 07:40:40;;;;;;;11.15;3.45;;;4.20;99.90;;;;;;4151803;28;20391;-63
2021/12/10 07:42:41;;;;;;;5.88;2.50;;;4.20;99.90;;;;;;4169305;28;20432;-63
2021/12/10 07:44:42;;;;;;;5.72;2.40;;;4.20;99.90;;;;;;4159022;28;20033;-63
2021/12/10 07:46:43;;;;;;;7.40;2.20;;;4.30;99.90;;;;;;4166635;28;20045;-63
2021/12/10 07:48:45;;;;;;;8.25;2.22;;;4.20;99.90;;;;;;4171835;28;20456;-63
2021/12/10 07:50:53;;;;;;;8.30;2.30;;;4.30;99.90;;;;;;4165135;28;20025;-62
2021/12/10 07:52:56;;;;;;;16.80;2.78;;;4.20;99.90;;;;;;4169132;28;20028;-63
2021/12/10 07:54:57;;;;;;;19.55;3.15;;;4.30;99.90;;;;;;4168508;28;20037;-63
2021/12/10 07:56:57;;;;;;;9.13;2.60;;;4.30;99.90;;;;;;4165202;28;20104;-63
2021/12/10 07:59:00;;;;;;;8.00;2.30;;;4.30;99.90;;;;;;4169655;28;20034;-63
2021/12/10 08:01:07;;;;;;;8.50;2.72;;;4.30;99.90;;;;;;4170145;28;20030;-63
2021/12/10 08:03:08;;;;;;;10.10;2.78;;;4.30;99.90;;;;;;4168540;28;20090;-62
2021/12/10 08:05:09;;;;;;;8.75;2.53;;;4.30;99.90;;;;;;4167789;28;20038;-63
2021/12/10 08:07:12;;;;;;;8.88;1.90;;;4.30;99.90;;;;;;4174598;28;20388;-63
2021/12/10 08:09:13;;;;;;;7.13;2.00;;;4.40;99.90;;;;;;4170757;28;20079;-63
2021/12/10 08:11:15;;;;;;;11.68;2.33;;;4.40;99.90;;;;;;4170659;28;20029;-63
2021/12/10 08:13:21;;;;;;;9.93;2.40;;;4.40;99.90;;;;;;4168211;28;20060;-63
2021/12/10 08:15:22;;;;;;;8.82;2.33;;;4.40;99.90;;;;;;4164727;28;20515;-63
2021/12/10 08:17:25;;;;;;;7.00;2.20;;;4.40;99.90;;;;;;4168847;28;20030;-63
2021/12/10 08:19:26;;;;;;;8.77;2.40;;;4.50;99.90;;;;;;4175335;28;20039;-63
2021/12/10 08:21:27;;;;;;;7.25;2.13;;;4.50;99.90;;;;;;4167485;28;20022;-63
2021/12/10 08:23:29;;;;;;;13.15;2.97;;;4.50;99.90;;;;;;4168275;28;20030;-63
2021/12/10 08:25:29;;;;;;;6.32;2.08;;;4.50;99.90;;;;;;4167064;28;20030;-63
2021/12/10 08:27:30;;;;;;;10.88;2.58;;;4.50;99.90;;;;;;4174264;28;20037;-63
2021/12/10 08:29:31;;;;;;;8.50;2.38;;;4.50;99.90;;;;;;4168427;28;20059;-63
2021/12/10 08:31:32;;;;;;;8.43;2.45;;;4.50;99.90;;;;;;4170648;28;20098;-63
2021/12/10 08:33:33;;;;;;;14.63;2.65;;;4.50;99.90;;;;;;4168311;28;20025;-63
2021/12/10 08:35:34;;;;;;;7.72;2.22;;;4.50;99.90;;;;;;4168315;28;20459;-63
2021/12/10 08:37:35;;;;;;;7.57;2.17;;;4.50;99.90;;;;;;4160414;28;20037;-63
2021/12/10 08:39:36;;;;;;;15.80;2.78;;;4.50;99.90;;;;;;4152818;28;20137;-63
2021/12/10 08:41:38;;;;;;;7.72;2.30;;;4.50;99.90;;;;;;4173411;28;20033;-63
2021/12/10 08:43:40;;;;;;;16.73;2.65;;;4.50;99.90;;;;;;4169478;28;20068;-63
2021/12/10 08:45:42;;;;;;;15.40;2.70;;;4.60;99.90;;;;;;4151882;28;20022;-63
2021/12/10 08:47:43;;;;;;;15.20;2.42;;;4.60;99.90;;;;;;4168010;28;20037;-63
2021/12/10 08:49:44;;;;;;;12.32;2.40;;;4.60;99.90;;;;;;4171505;28;20516;-63
2021/12/10 08:51:48;;;;;;;5.68;2.17;;;4.60;99.90;;;;;;4162269;28;20040;-63
2021/12/10 08:53:48;;;;;;;7.95;2.03;;;4.60;99.90;;;;;;4167815;28;20068;-63
2021/12/10 08:55:52;;;;;;;9.68;2.45;;;4.60;99.90;;;;;;4167284;28;20029;-63
2021/12/10 08:57:54;;;;;;;9.75;2.15;;;4.60;99.90;;;;;;4168116;28;20388;-63
2021/12/10 08:59:55;;;;;;;8.10;2.03;;;4.60;99.90;;;;;;4152254;28;20500;-63
2021/12/10 09:01:59;;;;;;;7.20;1.85;;;4.60;99.90;;;;;;4166850;28;20049;-63
2021/12/10 09:04:02;;;;;;;10.98;2.63;;;4.60;99.90;;;;;;4167656;28;20499;-63
2021/12/10 09:06:04;;;;;;;12.57;2.42;;;4.60;99.90;;;;;;4172528;28;20100;-63
2021/12/10 09:08:05;;;;;;;11.10;2.15;;;4.60;99.90;;;;;;4161926;28;20046;-63
2021/12/10 09:10:08;;;;;;;8.68;2.33;;;4.70;99.90;;;;;;4170490;28;20037;-63
2021/12/10 09:12:13;;;;;;;5.18;1.88;;;4.70;99.90;;;;;;4138235;28;20030;-63
2021/12/10 09:14:15;;;;;;;6.43;1.98;;;4.70;99.90;;;;;;4162840;28;20064;-63
2021/12/10 09:16:25;;;;;;;11.10;2.20;;;4.70;99.90;;;;;;4167720;28;20480;-63
2021/12/10 09:18:27;;;;;;;8.57;2.15;;;4.80;99.90;;;;;;4153472;28;20076;-63
2021/12/10 09:20:32;;;;;;;7.93;2.08;;;4.80;99.90;;;;;;4172142;28;20044;-63
2021/12/10 09:22:33;;;;;;;12.02;2.65;;;4.80;99.90;;;;;;4170361;28;20079;-63
2021/12/10 09:24:35;;;;;;;12.15;2.88;;;4.80;99.90;;;;;;4160992;28;20021;-63
2021/12/10 09:26:40;;;;;;;6.82;2.72;;;4.80;99.90;;;;;;4170662;28;20100;-63
2021/12/10 09:28:42;;;;;;;12.05;2.75;;;4.90;99.90;;;;;;4172575;28;20486;-63
2021/12/10 09:30:48;;;;;;;9.88;2.42;;;4.90;99.90;;;;;;4161039;28;20046;-63
2021/12/10 09:32:50;;;;;;;9.73;2.60;;;4.90;99.90;;;;;;4167068;28;20396;-63
2021/12/10 09:34:52;;;;;;;10.05;2.42;;;4.90;99.90;;;;;;4169457;28;20445;-63
2021/12/10 09:36:54;;;;;;;9.52;2.67;;;5.00;99.90;;;;;;4166456;28;20079;-64
2021/12/10 09:38:55;;;;;;;13.82;2.25;;;5.00;99.90;;;;;;4166925;28;20392;-63
2021/12/10 09:41:02;;;;;;;10.20;2.60;;;5.00;99.90;;;;;;4170689;28;20030;-63
2021/12/10 09:43:05;;;;;;;5.60;2.22;;;5.00;99.90;;;;;;4167333;28;20030;-63
2021/12/10 09:45:07;;;;;;;5.43;2.22;;;5.10;99.90;;;;;;4166644;28;20057;-63
2021/12/10 09:47:14;;;;;;;8.63;2.50;;;5.10;99.90;;;;;;4166465;28;20037;-63
2021/12/10 09:49:15;;;;;;;9.40;2.47;;;5.20;99.90;;;;;;4169823;28;20045;-63
2021/12/10 09:51:24;;;;;;;7.22;2.42;;;5.20;99.90;;;;;;4170381;28;20033;-63
2021/12/10 09:53:28;;;;;;;9.38;2.20;;;5.20;99.90;;;;;;4165654;28;20029;-63
2021/12/10 09:55:29;;;;;;;11.60;2.83;;;5.20;99.90;;;;;;4165976;28;20029;-63
2021/12/10 09:57:32;;;;;;;7.13;2.55;;;5.20;99.90;;;;;;4171880;28;20499;-63
2021/12/10 09:59:35;;;;;;;6.20;2.28;;;5.20;99.90;;;;;;4174103;28;20080;-63
2021/12/10 10:01:41;;;;;;;10.65;2.70;;;5.20;99.90;;;;;;4165397;28;20533;-63
2021/12/10 10:03:46;;;;;;;6.53;2.17;;;5.20;99.90;;;;;;4169113;28;20116;-63
2021/12/10 10:05:47;;;;;;;10.00;2.58;;;5.20;99.90;;;;;;4170693;28;20434;-63
2021/12/10 10:07:51;;;;;;;7.72;2.30;;;5.30;99.90;;;;;;4151264;28;20067;-63
2021/12/10 10:09:56;;;;;;;3.45;2.03;;;5.30;99.90;;;;;;4165991;28;20041;-63
2021/12/10 10:12:06;;;;;;;3.83;1.98;;;5.30;99.90;;;;;;4168420;28;20036;-63
2021/12/10 10:14:07;;;;;;;8.88;2.35;;;5.40;99.90;;;;;;4166786;28;20046;-63
2021/12/10 10:16:09;;;;;;;6.93;2.42;;;5.40;99.90;;;;;;4165855;28;20065;-63
2021/12/10 10:18:11;;;;;;;9.75;2.70;;;5.50;99.90;;;;;;4167156;28;20041;-63
2021/12/10 10:20:14;;;;;;;10.60;3.10;;;5.40;99.90;;;;;;4167719;28;20087;-64
2021/12/10 10:22:19;;;;;;;8.48;2.80;;;5.30;99.90;;;;;;4173897;28;20100;-63
2021/12/10 10:24:21;;;;;;;9.15;2.33;;;5.30;99.90;;;;;;4166689;28;20036;-63
2021/12/10 10:26:32;;;;;;;12.23;3.05;;;5.40;99.90;;;;;;4166368;28;20071;-63
2021/12/10 10:28:33;;;;;;;12.30;2.70;;;5.20;99.90;;;;;;4153239;28;20045;-63
2021/12/10 10:30:38;;;;;;;7.78;2.40;;;5.30;99.90;;;;;;4165476;28;20038;-63
2021/12/10 10:32:43;;;;;;;11.05;2.85;;;5.40;99.90;;;;;;4166334;28;20030;-63
2021/12/10 10:34:48;;;;;;;12.50;2.70;;;5.40;99.90;;;;;;4166498;28;20045;-63
2021/12/10 10:36:50;;;;;;;5.13;2.42;;;5.30;99.90;;;;;;4165308;28;20076;-63
2021/12/10 10:38:56;;;;;;;9.27;2.55;;;5.30;99.90;;;;;;4169870;28;20033;-63
2021/12/10 10:41:04;;;;;;;6.80;2.70;;;5.40;99.90;;;;;;4165855;28;20033;-63
2021/12/10 10:43:06;;;;;;;8.57;2.33;;;5.30;99.90;;;;;;4166803;28;20379;-63
2021/12/10 10:45:12;;;;;;;7.18;2.30;;;5.40;99.90;;;;;;4165936;28;20033;-64
2021/12/10 10:47:13;;;;;;;8.57;2.35;;;5.40;99.90;;;;;;4168640;28;20115;-63
2021/12/10 10:49:42;;;;;;;10.80;3.05;;;5.30;99.90;;;;;;4164642;28;20053;-63
2021/12/10 10:51:42;;;;;;;7.53;2.53;;;5.30;99.90;;;;;;4164791;28;20032;-63
2021/12/10 10:53:49;;;;;;;9.15;2.78;;;5.30;99.90;;;;;;4170497;28;20408;-63
2021/12/10 10:55:54;;;;;;;7.28;2.80;;;5.30;99.90;;;;;;4164970;28;20503;-63